createdAt,value
2023-05-21T00:01:07.527Z,15.66
2023-05-21T00:06:09.018Z,15.66
2023-05-21T00:11:10.531Z,15.65
2023-05-21T00:16:12.067Z,15.62
2023-05-21T00:21:14.214Z,15.58
2023-05-21T00:26:15.989Z,15.60
2023-05-21T00:31:17.600Z,15.57
2023-05-21T00:36:23.714Z,15.56
2023-05-21T00:41:26.015Z,15.49
2023-05-21T00:46:28.642Z,15.45
2023-05-21T00:51:30.875Z,15.42
2023-05-21T00:56:32.626Z,15.36
2023-05-21T01:01:36.931Z,15.33
2023-05-21T01:06:38.625Z,15.30
2023-05-21T01:11:43.682Z,15.27
2023-05-21T01:16:48.266Z,15.22
2023-05-21T01:21:53.425Z,15.16
2023-05-21T01:26:54.886Z,15.23
2023-05-21T01:32:26.497Z,15.20
2023-05-21T01:37:45.385Z,15.14
2023-05-21T01:42:47.346Z,15.13
2023-05-21T01:47:51.747Z,15.13
2023-05-21T01:52:56.904Z,15.11
2023-05-21T01:58:02.044Z,15.05
2023-05-21T02:03:04.226Z,15.02
2023-05-21T02:08:08.327Z,14.98
2023-05-21T02:13:09.856Z,14.92
2023-05-21T02:18:11.390Z,14.92
2023-05-21T02:23:13.211Z,14.92
2023-05-21T02:28:15.928Z,14.90
2023-05-21T02:33:17.376Z,14.86
2023-05-21T02:38:19.549Z,14.79
2023-05-21T02:43:21.151Z,14.74
2023-05-21T02:48:22.605Z,14.70
2023-05-21T02:53:24.043Z,14.67
2023-05-21T02:58:25.537Z,14.65
2023-05-21T03:03:27.114Z,14.66
2023-05-21T03:08:28.677Z,14.66
2023-05-21T03:13:30.245Z,14.65
2023-05-21T03:18:31.823Z,14.66
2023-05-21T03:23:33.319Z,14.69
2023-05-21T03:28:35.506Z,14.76
2023-05-21T03:33:37.083Z,14.78
2023-05-21T03:38:38.598Z,14.79
2023-05-21T03:43:40.076Z,14.82
2023-05-21T03:48:41.907Z,14.91
2023-05-21T03:53:43.423Z,15.03
2023-05-21T03:58:44.927Z,15.10
2023-05-21T04:03:46.832Z,15.24
2023-05-21T04:08:48.534Z,15.34
2023-05-21T04:13:50.234Z,15.48
2023-05-21T04:18:52.304Z,15.59
2023-05-21T04:23:53.944Z,15.71
2023-05-21T04:28:55.544Z,15.83
2023-05-21T04:33:57.024Z,15.80
2023-05-21T04:38:58.507Z,15.95
2023-05-21T04:44:01.064Z,16.01
2023-05-21T04:49:05.441Z,16.13
2023-05-21T04:54:07.578Z,16.38
2023-05-21T04:59:09.042Z,16.67
2023-05-21T05:04:10.532Z,16.68
2023-05-21T05:09:12.021Z,17.00
2023-05-21T05:14:13.453Z,17.27
2023-05-21T05:19:15.005Z,17.52
2023-05-21T05:24:16.546Z,17.60
2023-05-21T05:29:18.058Z,17.80
2023-05-21T05:34:20.052Z,17.81
2023-05-21T05:39:21.496Z,18.04
2023-05-21T05:44:23.001Z,18.26
2023-05-21T05:49:24.461Z,18.45
2023-05-21T05:54:25.914Z,18.56
2023-05-21T05:59:27.364Z,18.74
2023-05-21T06:04:30.202Z,18.90
2023-05-21T06:09:31.770Z,19.31
2023-05-21T06:14:33.222Z,19.23
2023-05-21T06:19:34.746Z,19.43
2023-05-21T06:24:36.316Z,19.62
2023-05-21T06:29:37.865Z,19.76
2023-05-21T06:34:39.380Z,19.95
2023-05-21T06:39:40.902Z,20.16
2023-05-21T06:44:42.413Z,20.34
2023-05-21T06:49:43.898Z,20.66
2023-05-21T06:54:45.363Z,20.81
2023-05-21T06:59:46.806Z,21.02
2023-05-21T07:04:48.267Z,21.32
2023-05-21T07:09:49.724Z,21.58
2023-05-21T07:14:51.189Z,21.45
2023-05-21T07:19:52.656Z,21.40
2023-05-21T07:24:54.105Z,21.53
2023-05-21T07:29:55.551Z,21.75
2023-05-21T07:34:57.088Z,22.11
2023-05-21T07:39:58.793Z,22.31
2023-05-21T07:45:00.315Z,22.41
2023-05-21T07:50:01.874Z,22.37
2023-05-21T07:55:03.468Z,22.32
2023-05-21T08:00:09.168Z,22.39
2023-05-21T08:05:10.749Z,22.65
2023-05-21T08:10:12.232Z,22.89
2023-05-21T08:15:13.685Z,22.83
2023-05-21T08:20:15.474Z,23.05
2023-05-21T08:25:16.986Z,23.30
2023-05-21T08:30:18.686Z,23.22
2023-05-21T08:35:20.304Z,23.47
2023-05-21T08:40:22.037Z,23.31
2023-05-21T08:45:23.886Z,23.34
2023-05-21T08:50:27.936Z,23.49
2023-05-21T08:55:31.065Z,23.83
2023-05-21T09:00:32.551Z,23.91
2023-05-21T09:05:35.467Z,24.01
2023-05-21T09:10:39.823Z,24.07
2023-05-21T09:15:41.954Z,24.47
2023-05-21T09:20:44.164Z,24.33
2023-05-21T09:25:47.515Z,24.60
2023-05-21T09:30:53.528Z,24.79
2023-05-21T09:35:55.456Z,24.88
2023-05-21T09:40:57.438Z,24.85
2023-05-21T09:46:01.998Z,24.95
2023-05-21T09:51:08.113Z,24.90
2023-05-21T09:56:10.066Z,25.12
2023-05-21T10:01:11.583Z,25.31
2023-05-21T10:06:14.066Z,25.42
2023-05-21T10:11:16.678Z,25.50
2023-05-21T10:16:18.235Z,25.52
2023-05-21T10:21:22.904Z,25.38
2023-05-21T10:26:24.860Z,25.54
2023-05-21T10:31:27.805Z,25.44
2023-05-21T10:36:31.659Z,25.32
2023-05-21T10:41:42.424Z,25.76
2023-05-21T10:47:21.903Z,25.71
2023-05-21T10:52:45.201Z,25.68
2023-05-21T10:58:04.918Z,25.80
2023-05-21T11:03:08.289Z,25.68
2023-05-21T11:08:26.907Z,25.78
2023-05-21T11:13:44.557Z,25.96
2023-05-21T11:18:46.173Z,25.92
2023-05-21T11:23:50.529Z,25.79
2023-05-21T11:29:04.296Z,25.92
2023-05-21T11:34:16.270Z,25.99
2023-05-21T11:39:22.177Z,26.11
2023-05-21T11:44:43.098Z,26.30
2023-05-21T11:49:45.945Z,26.12
2023-05-21T11:54:50.715Z,26.13
2023-05-21T11:59:52.577Z,26.09
2023-05-21T12:04:54.295Z,25.99
2023-05-21T12:09:56.613Z,26.20
2023-05-21T12:14:58.633Z,26.15
2023-05-21T12:20:01.845Z,26.32
2023-05-21T12:25:04.300Z,26.12
2023-05-21T12:30:06.704Z,26.20
2023-05-21T12:35:08.481Z,26.02
2023-05-21T12:40:11.929Z,26.19
2023-05-21T12:45:14.058Z,26.02
2023-05-21T12:50:21.024Z,26.41
2023-05-21T12:55:24.755Z,26.36
2023-05-21T13:00:26.232Z,26.52
2023-05-21T13:05:27.855Z,26.54
2023-05-21T13:10:29.383Z,26.33
2023-05-21T13:15:31.098Z,26.28
2023-05-21T13:20:32.885Z,26.58
2023-05-21T13:25:34.349Z,26.48
2023-05-21T13:30:36.802Z,26.57
2023-05-21T13:35:38.639Z,26.56
2023-05-21T13:40:40.544Z,26.66
2023-05-21T13:45:42.460Z,26.83
2023-05-21T13:50:43.912Z,26.63
2023-05-21T13:55:45.475Z,26.90
2023-05-21T14:00:47.040Z,26.58
2023-05-21T14:05:53.553Z,26.71
2023-05-21T14:10:55.569Z,26.58
2023-05-21T14:15:57.013Z,26.61
2023-05-21T14:20:58.688Z,26.51
2023-05-21T14:26:00.237Z,26.24
2023-05-21T14:31:01.748Z,26.36
2023-05-21T14:36:04.256Z,26.39
2023-05-21T14:41:07.117Z,26.26
2023-05-21T14:46:08.631Z,26.30
2023-05-21T14:51:10.177Z,26.09
2023-05-21T14:56:11.745Z,25.88
2023-05-21T15:01:13.260Z,25.86
2023-05-21T15:06:14.731Z,25.93
2023-05-21T15:11:16.185Z,25.90
2023-05-21T15:16:19.602Z,25.98
2023-05-21T15:21:21.455Z,26.26
2023-05-21T15:26:25.148Z,26.06
2023-05-21T15:31:26.591Z,26.17
2023-05-21T15:36:28.142Z,26.26
2023-05-21T15:41:29.760Z,26.11
2023-05-21T15:46:31.273Z,26.13
2023-05-21T15:51:32.800Z,26.27
2023-05-21T15:56:34.277Z,26.44
2023-05-21T16:01:35.978Z,26.33
2023-05-21T16:06:37.734Z,26.27
2023-05-21T16:11:39.177Z,26.10
2023-05-21T16:16:40.686Z,25.98
2023-05-21T16:21:42.141Z,25.81
2023-05-21T16:26:43.955Z,25.47
2023-05-21T16:31:45.430Z,25.68
2023-05-21T16:36:46.892Z,25.45
2023-05-21T16:41:48.345Z,25.36
2023-05-21T16:46:49.790Z,25.02
2023-05-21T16:51:51.270Z,24.85
2023-05-21T16:56:54.528Z,24.88
2023-05-21T17:01:56.145Z,24.72
2023-05-21T17:06:57.671Z,24.64
2023-05-21T17:11:59.143Z,24.54
2023-05-21T17:17:00.632Z,24.65
2023-05-21T17:22:02.250Z,24.51
2023-05-21T17:27:03.788Z,24.52
2023-05-21T17:32:05.969Z,24.12
2023-05-21T17:37:07.420Z,24.06
2023-05-21T17:42:08.875Z,23.97
2023-05-21T17:47:10.421Z,23.78
2023-05-21T17:52:11.908Z,23.83
2023-05-21T17:57:14.201Z,23.62
2023-05-21T18:02:17.088Z,23.45
2023-05-21T18:07:18.585Z,23.39
2023-05-21T18:12:20.039Z,23.16
2023-05-21T18:17:21.484Z,23.04
2023-05-21T18:22:22.929Z,22.89
2023-05-21T18:27:24.372Z,22.80
2023-05-21T18:32:25.912Z,22.65
2023-05-21T18:37:27.436Z,22.59
2023-05-21T18:42:28.891Z,22.52
2023-05-21T18:47:30.426Z,22.43
2023-05-21T18:52:31.897Z,22.30
2023-05-21T18:57:34.682Z,22.31
2023-05-21T19:02:36.900Z,22.05
2023-05-21T19:07:38.490Z,21.94
2023-05-21T19:12:41.855Z,21.80
2023-05-21T19:17:43.351Z,21.75
2023-05-21T19:22:44.842Z,21.60
2023-05-21T19:27:46.304Z,21.60
2023-05-21T19:32:48.054Z,21.51
2023-05-21T19:37:49.891Z,21.33
2023-05-21T19:42:51.343Z,21.33
2023-05-21T19:47:52.836Z,21.18
2023-05-21T19:52:55.245Z,21.06
2023-05-21T19:57:56.706Z,20.95
2023-05-21T20:02:58.197Z,20.86
2023-05-21T20:07:59.707Z,20.82
2023-05-21T20:13:01.327Z,20.70
2023-05-21T20:18:02.882Z,20.56
2023-05-21T20:23:04.736Z,20.51
2023-05-21T20:28:08.049Z,20.41
2023-05-21T20:33:09.541Z,20.24
2023-05-21T20:38:11.058Z,20.15
2023-05-21T20:43:13.712Z,20.18
2023-05-21T20:48:15.234Z,20.05
2023-05-21T20:53:17.757Z,19.98
2023-05-21T20:58:19.256Z,19.89
2023-05-21T21:03:21.791Z,19.74
2023-05-21T21:08:24.689Z,19.68
2023-05-21T21:13:26.371Z,19.62
2023-05-21T21:18:27.856Z,19.70
2023-05-21T21:23:30.096Z,19.41
2023-05-21T21:28:31.542Z,19.45
2023-05-21T21:33:33.039Z,19.30
2023-05-21T21:38:34.548Z,19.27
2023-05-21T21:43:36.266Z,19.06
2023-05-21T21:48:37.816Z,19.07
2023-05-21T21:53:39.473Z,18.88
2023-05-21T21:58:40.941Z,18.93
2023-05-21T22:03:42.394Z,18.80
2023-05-21T22:08:43.931Z,18.76
2023-05-21T22:13:45.575Z,18.64
2023-05-21T22:18:47.051Z,18.65
2023-05-21T22:23:48.550Z,18.50
2023-05-21T22:28:50.178Z,18.45
2023-05-21T22:33:51.670Z,18.41
2023-05-21T22:38:53.402Z,18.37
2023-05-21T22:43:54.906Z,18.26
2023-05-21T22:48:56.339Z,18.21
2023-05-21T22:53:57.805Z,18.20
2023-05-21T22:58:59.561Z,18.12
2023-05-21T23:04:01.042Z,18.13
2023-05-21T23:09:02.505Z,18.00
2023-05-21T23:14:04.047Z,17.90
2023-05-21T23:19:05.557Z,17.78
2023-05-21T23:24:07.688Z,17.79
2023-05-21T23:29:09.307Z,17.76
2023-05-21T23:34:10.861Z,17.61
2023-05-21T23:39:12.333Z,17.54
2023-05-21T23:44:15.352Z,17.51
2023-05-21T23:49:16.875Z,17.47
2023-05-21T23:54:18.461Z,17.47
2023-05-21T23:59:19.946Z,17.33
